createdAt,value
2023-04-25T00:01:38.696Z,6.50
2023-04-25T00:04:07.766Z,6.70
2023-04-25T00:06:38.041Z,6.70
2023-04-25T00:09:08.434Z,6.70
2023-04-25T00:11:36.443Z,6.70
2023-04-25T00:14:05.660Z,6.70
2023-04-25T00:16:35.989Z,6.80
2023-04-25T00:19:05.796Z,6.70
2023-04-25T00:21:33.944Z,6.70
2023-04-25T00:24:02.228Z,6.80
2023-04-25T00:26:30.456Z,6.90
2023-04-25T00:28:58.302Z,6.90
2023-04-25T00:31:26.212Z,6.90
2023-04-25T00:33:54.343Z,6.80
2023-04-25T00:36:23.934Z,6.80
2023-04-25T00:38:51.780Z,6.60
2023-04-25T00:41:20.548Z,6.70
2023-04-25T00:43:49.970Z,6.40
2023-04-25T00:46:18.254Z,6.60
2023-04-25T00:48:46.599Z,6.50
2023-04-25T00:51:18.149Z,6.40
2023-04-25T00:53:49.056Z,6.50
2023-04-25T00:56:18.195Z,6.50
2023-04-25T00:58:46.588Z,6.30
2023-04-25T01:01:15.359Z,6.40
2023-04-25T01:03:44.169Z,6.40
2023-04-25T01:06:13.451Z,6.30
2023-04-25T01:08:41.637Z,6.40
2023-04-25T01:11:10.924Z,6.30
2023-04-25T01:13:39.066Z,6.60
2023-04-25T01:16:07.509Z,6.50
2023-04-25T01:18:35.586Z,6.40
2023-04-25T01:21:11.038Z,6.30
2023-04-25T01:23:40.499Z,6.40
2023-04-25T01:26:10.145Z,6.30
2023-04-25T01:28:38.383Z,6.20
2023-04-25T01:31:06.843Z,6.30
2023-04-25T01:33:35.211Z,6.40
2023-04-25T01:36:03.206Z,6.30
2023-04-25T01:38:32.550Z,6.10
2023-04-25T01:41:00.603Z,6.00
2023-04-25T01:43:28.756Z,6.00
2023-04-25T01:45:57.344Z,6.10
2023-04-25T01:48:25.498Z,6.00
2023-04-25T01:50:53.489Z,6.10
2023-04-25T01:53:21.349Z,6.00
2023-04-25T01:55:50.656Z,6.10
2023-04-25T01:58:18.493Z,5.80
2023-04-25T02:00:46.526Z,6.10
2023-04-25T02:03:14.591Z,5.90
2023-04-25T02:05:42.766Z,6.00
2023-04-25T02:08:12.027Z,6.00
2023-04-25T02:10:39.940Z,6.00
2023-04-25T02:13:09.250Z,5.90
2023-04-25T02:15:37.332Z,5.70
2023-04-25T02:18:07.571Z,5.90
2023-04-25T02:20:35.767Z,5.90
2023-04-25T02:23:03.731Z,5.80
2023-04-25T02:25:32.015Z,5.80
2023-04-25T02:27:59.920Z,6.00
2023-04-25T02:30:29.448Z,5.80
2023-04-25T02:32:57.619Z,5.80
2023-04-25T02:35:25.840Z,6.00
2023-04-25T02:37:54.546Z,5.80
2023-04-25T02:40:22.407Z,6.10
2023-04-25T02:42:50.516Z,6.00
2023-04-25T02:45:18.517Z,5.90
2023-04-25T02:47:47.847Z,5.90
2023-04-25T02:50:15.695Z,5.80
2023-04-25T02:52:43.514Z,5.80
2023-04-25T02:55:11.754Z,5.70
2023-04-25T02:57:39.858Z,5.80
2023-04-25T03:00:09.253Z,5.70
2023-04-25T03:02:37.191Z,5.60
2023-04-25T03:05:06.929Z,5.70
2023-04-25T03:07:34.993Z,5.90
2023-04-25T03:10:03.568Z,5.70
2023-04-25T03:12:31.599Z,5.80
2023-04-25T03:14:59.693Z,5.90
2023-04-25T03:17:27.822Z,6.00
2023-04-25T03:19:56.136Z,5.90
2023-04-25T03:22:25.677Z,5.90
2023-04-25T03:24:53.543Z,5.90
2023-04-25T03:27:21.584Z,5.80
2023-04-25T03:29:49.928Z,5.80
2023-04-25T03:32:18.009Z,5.70
2023-04-25T03:34:46.018Z,5.70
2023-04-25T03:37:14.232Z,5.70
2023-04-25T03:39:43.648Z,5.90
2023-04-25T03:42:11.504Z,5.60
2023-04-25T03:44:39.579Z,5.90
2023-04-25T03:47:07.502Z,5.70
2023-04-25T03:49:36.529Z,5.80
2023-04-25T03:52:05.203Z,5.60
2023-04-25T03:54:33.603Z,5.60
2023-04-25T03:57:04.501Z,5.60
2023-04-25T03:59:32.397Z,5.50
2023-04-25T04:02:00.352Z,5.50
2023-04-25T04:04:28.374Z,5.70
2023-04-25T04:06:56.609Z,5.60
2023-04-25T04:09:24.582Z,5.40
2023-04-25T04:11:52.466Z,5.30
2023-04-25T04:14:21.831Z,5.60
2023-04-25T04:16:49.970Z,5.60
2023-04-25T04:19:17.922Z,5.70
2023-04-25T04:21:46.054Z,5.30
2023-04-25T04:24:14.297Z,5.50
2023-04-25T04:26:42.155Z,5.60
2023-04-25T04:29:09.988Z,5.50
2023-04-25T04:31:39.235Z,5.30
2023-04-25T04:34:07.376Z,5.50
2023-04-25T04:36:35.267Z,5.40
2023-04-25T04:39:04.462Z,5.50
2023-04-25T04:41:32.303Z,5.50
2023-04-25T04:44:02.047Z,5.50
2023-04-25T04:46:30.214Z,5.50
2023-04-25T04:48:59.658Z,5.50
2023-04-25T04:51:27.716Z,5.60
2023-04-25T04:53:59.456Z,5.50
2023-04-25T04:56:27.375Z,5.70
2023-04-25T04:58:55.456Z,5.50
2023-04-25T05:01:23.782Z,5.50
2023-04-25T05:03:53.023Z,5.40
2023-04-25T05:06:22.737Z,5.50
2023-04-25T05:08:50.630Z,5.70
2023-04-25T05:11:18.563Z,5.60
2023-04-25T05:13:46.587Z,5.60
2023-04-25T05:16:14.646Z,5.50
2023-04-25T05:18:42.500Z,5.80
2023-04-25T05:21:10.381Z,5.80
2023-04-25T05:23:39.877Z,5.70
2023-04-25T05:26:14.674Z,5.80
2023-04-25T05:28:43.229Z,5.90
2023-04-25T05:31:12.318Z,5.70
2023-04-25T05:33:40.265Z,5.60
2023-04-25T05:36:09.244Z,5.70
2023-04-25T05:38:37.284Z,5.80
2023-04-25T05:41:06.623Z,5.90
2023-04-25T05:43:34.474Z,6.00
2023-04-25T05:46:02.646Z,5.70
2023-04-25T05:48:31.157Z,5.90
2023-04-25T05:50:59.198Z,5.90
2023-04-25T05:53:27.113Z,6.00
2023-04-25T05:55:55.202Z,6.10
2023-04-25T05:58:24.962Z,6.00
2023-04-25T06:00:53.151Z,6.10
2023-04-25T06:03:21.482Z,6.30
2023-04-25T06:05:50.015Z,6.20
2023-04-25T06:08:18.162Z,6.20
2023-04-25T06:10:46.216Z,6.20
2023-04-25T06:13:14.277Z,6.30
2023-04-25T06:15:43.896Z,6.40
2023-04-25T06:18:11.869Z,6.70
2023-04-25T06:20:39.909Z,6.70
2023-04-25T06:23:07.843Z,6.80
2023-04-25T06:25:35.975Z,6.60
2023-04-25T06:28:03.943Z,6.80
2023-04-25T06:30:31.973Z,7.10
2023-04-25T06:33:01.340Z,7.00
2023-04-25T06:35:29.496Z,7.20
2023-04-25T06:37:57.416Z,7.20
2023-04-25T06:40:25.689Z,6.90
2023-04-25T06:42:53.782Z,6.80
2023-04-25T06:45:21.659Z,7.20
2023-04-25T06:47:49.571Z,7.10
2023-04-25T06:50:18.905Z,7.50
2023-04-25T06:52:47.159Z,7.30
2023-04-25T06:55:15.121Z,7.20
2023-04-25T06:57:42.971Z,7.40
2023-04-25T07:00:12.141Z,7.50
2023-04-25T07:02:40.104Z,7.20
2023-04-25T07:05:08.447Z,7.10
2023-04-25T07:07:37.659Z,7.10
2023-04-25T07:10:06.371Z,7.00
2023-04-25T07:12:34.494Z,7.10
2023-04-25T07:15:06.798Z,7.00
2023-04-25T07:17:35.808Z,7.00
2023-04-25T07:20:04.641Z,7.10
2023-04-25T07:22:32.770Z,7.10
2023-04-25T07:25:02.116Z,7.20
2023-04-25T07:27:30.095Z,7.30
2023-04-25T07:29:58.308Z,7.60
2023-04-25T07:32:27.466Z,7.50
2023-04-25T07:34:55.392Z,7.50
2023-04-25T07:37:23.571Z,7.60
2023-04-25T07:39:51.475Z,7.50
2023-04-25T07:42:20.867Z,7.70
2023-04-25T07:44:48.760Z,7.80
2023-04-25T07:47:16.696Z,8.00
2023-04-25T07:49:44.576Z,8.10
2023-04-25T07:52:12.434Z,8.00
2023-04-25T07:54:40.357Z,8.20
2023-04-25T07:57:08.390Z,8.30
2023-04-25T07:59:38.216Z,8.60
2023-04-25T08:02:06.373Z,8.70
2023-04-25T08:04:34.532Z,8.80
2023-04-25T08:07:02.646Z,9.40
2023-04-25T08:09:34.994Z,9.50
2023-04-25T08:12:03.261Z,9.30
2023-04-25T08:14:36.647Z,9.00
2023-04-25T08:17:06.403Z,8.50
2023-04-25T08:19:34.583Z,8.70
2023-04-25T08:22:02.665Z,8.40
2023-04-25T08:24:30.560Z,8.30
2023-04-25T08:26:59.768Z,8.40
2023-04-25T08:29:29.610Z,8.90
2023-04-25T08:31:57.981Z,9.00
2023-04-25T08:34:27.564Z,8.80
2023-04-25T08:36:55.516Z,8.90
2023-04-25T08:39:23.699Z,8.90
2023-04-25T08:41:53.553Z,9.00
2023-04-25T08:44:22.909Z,9.50
2023-04-25T08:46:51.622Z,9.90
2023-04-25T08:49:20.020Z,9.70
2023-04-25T08:51:51.501Z,9.70
2023-04-25T08:54:33.978Z,9.40
2023-04-25T08:57:05.436Z,8.90
2023-04-25T08:59:36.567Z,8.70
2023-04-25T09:02:05.978Z,8.90
2023-04-25T09:04:34.096Z,9.10
2023-04-25T09:07:03.409Z,9.30
2023-04-25T09:09:32.389Z,9.40
2023-04-25T09:12:02.741Z,9.60
2023-04-25T09:14:30.934Z,9.90
2023-04-25T09:17:04.465Z,10.00
2023-04-25T09:22:06.773Z,9.80
2023-04-25T09:24:37.103Z,9.80
2023-04-25T09:27:08.676Z,9.80
2023-04-25T09:29:39.214Z,10.10
2023-04-25T09:32:23.284Z,10.10
2023-04-25T09:34:52.695Z,10.40
2023-04-25T09:37:23.721Z,10.40
2023-04-25T09:39:52.801Z,10.20
2023-04-25T09:42:25.005Z,10.10
2023-04-25T09:44:54.934Z,9.90
2023-04-25T09:47:24.752Z,9.80
2023-04-25T09:49:53.837Z,9.40
2023-04-25T09:52:26.201Z,9.00
2023-04-25T09:54:56.252Z,8.90
2023-04-25T09:57:25.298Z,8.90
2023-04-25T09:59:54.375Z,9.10
2023-04-25T10:02:24.176Z,9.00
2023-04-25T10:04:55.547Z,9.10
2023-04-25T10:07:28.792Z,9.20
2023-04-25T10:10:02.903Z,9.30
2023-04-25T10:12:32.144Z,9.20
2023-04-25T10:15:01.405Z,9.10
2023-04-25T10:17:29.912Z,9.50
2023-04-25T10:19:58.369Z,9.50
2023-04-25T10:22:32.945Z,9.40
2023-04-25T10:25:01.315Z,9.50
2023-04-25T10:27:30.334Z,9.10
2023-04-25T10:30:06.314Z,9.20
2023-04-25T10:32:34.742Z,9.00
2023-04-25T10:35:13.424Z,8.70
2023-04-25T10:37:59.480Z,8.10
2023-04-25T10:40:28.065Z,7.90
2023-04-25T10:42:57.175Z,7.60
2023-04-25T10:45:25.393Z,7.80
2023-04-25T10:47:53.249Z,7.80
2023-04-25T10:50:21.322Z,7.90
2023-04-25T10:52:50.729Z,8.30
2023-04-25T10:55:18.516Z,8.50
2023-04-25T10:57:49.316Z,8.50
2023-04-25T11:00:19.388Z,8.90
2023-04-25T11:02:48.726Z,8.70
2023-04-25T11:05:32.852Z,8.80
2023-04-25T11:08:08.285Z,9.10
2023-04-25T11:10:37.457Z,9.20
2023-04-25T11:13:05.873Z,9.50
2023-04-25T11:15:33.750Z,9.80
2023-04-25T11:18:02.354Z,9.80
2023-04-25T11:20:30.583Z,10.00
2023-04-25T11:23:00.703Z,10.30
2023-04-25T11:25:30.801Z,10.40
2023-04-25T11:28:01.711Z,10.90
2023-04-25T11:30:29.739Z,11.10
2023-04-25T11:32:58.763Z,11.10
2023-04-25T11:35:27.003Z,11.30
2023-04-25T11:37:54.943Z,11.30
2023-04-25T11:40:23.035Z,11.10
2023-04-25T11:42:55.124Z,11.00
2023-04-25T11:45:25.415Z,10.60
2023-04-25T11:47:54.094Z,10.30
2023-04-25T11:50:22.267Z,10.20
2023-04-25T11:52:51.208Z,10.10
2023-04-25T11:55:21.516Z,10.10
2023-04-25T11:57:52.270Z,9.90
2023-04-25T12:00:22.302Z,9.60
2023-04-25T12:02:54.261Z,10.20
2023-04-25T12:05:32.859Z,10.80
2023-04-25T12:08:13.620Z,11.20
2023-04-25T12:10:42.914Z,11.50
2023-04-25T12:13:22.908Z,11.60
2023-04-25T12:15:50.908Z,11.40
2023-04-25T12:18:22.502Z,11.40
2023-04-25T12:20:50.821Z,11.60
2023-04-25T12:23:19.203Z,11.70
2023-04-25T12:25:48.012Z,11.70
2023-04-25T12:28:17.056Z,11.40
2023-04-25T12:30:57.162Z,10.40
2023-04-25T12:33:25.495Z,9.60
2023-04-25T12:35:54.051Z,9.20
2023-04-25T12:38:26.120Z,8.60
2023-04-25T12:40:54.146Z,8.30
2023-04-25T12:43:22.654Z,8.00
2023-04-25T12:45:51.859Z,7.50
2023-04-25T12:48:21.976Z,7.80
2023-04-25T12:50:50.680Z,7.80
2023-04-25T12:53:18.753Z,8.00
2023-04-25T12:55:48.209Z,8.00
2023-04-25T12:58:16.259Z,8.10
2023-04-25T13:00:44.212Z,8.30
2023-04-25T13:03:13.453Z,8.40
2023-04-25T13:05:43.102Z,8.70
2023-04-25T13:08:10.885Z,8.90
2023-04-25T13:10:40.063Z,9.30
2023-04-25T13:13:08.216Z,9.30
2023-04-25T13:15:36.298Z,9.30
2023-04-25T13:18:06.395Z,9.60
2023-04-25T13:20:34.575Z,10.00
2023-04-25T13:23:03.835Z,10.20
2023-04-25T13:25:31.742Z,10.40
2023-04-25T13:27:59.645Z,10.70
2023-04-25T13:30:27.578Z,10.80
2023-04-25T13:32:57.935Z,10.50
2023-04-25T13:35:26.725Z,10.20
2023-04-25T13:37:54.876Z,10.40
2023-04-25T13:40:25.624Z,10.30
2023-04-25T13:42:53.668Z,10.00
2023-04-25T13:45:22.519Z,10.20
2023-04-25T13:47:51.085Z,10.50
2023-04-25T13:50:19.720Z,10.90
2023-04-25T13:52:47.836Z,10.80
2023-04-25T13:55:15.801Z,10.50
2023-04-25T13:57:44.991Z,9.70
2023-04-25T14:00:14.389Z,9.00
2023-04-25T14:02:42.282Z,9.10
2023-04-25T14:05:11.010Z,8.90
2023-04-25T14:07:39.034Z,8.80
2023-04-25T14:10:08.501Z,9.00
2023-04-25T14:12:36.464Z,9.10
2023-04-25T14:15:06.859Z,9.40
2023-04-25T14:17:34.807Z,9.80
2023-04-25T14:20:02.819Z,10.10
2023-04-25T14:22:30.853Z,10.10
2023-04-25T14:24:58.978Z,10.10
2023-04-25T14:27:29.116Z,10.00
2023-04-25T14:29:57.278Z,9.80
2023-04-25T14:32:26.797Z,10.00
2023-04-25T14:34:54.627Z,10.00
2023-04-25T14:37:22.704Z,10.10
2023-04-25T14:39:50.539Z,10.40
2023-04-25T14:42:18.348Z,10.90
2023-04-25T14:44:46.426Z,11.40
2023-04-25T14:47:14.338Z,11.30
2023-04-25T14:49:43.881Z,11.40
2023-04-25T14:52:11.677Z,11.30
2023-04-25T14:54:39.482Z,11.30
2023-04-25T14:57:07.281Z,11.20
2023-04-25T14:59:35.111Z,10.90
2023-04-25T15:02:02.949Z,10.70
2023-04-25T15:04:31.707Z,10.50
2023-04-25T15:07:01.063Z,10.20
2023-04-25T15:09:29.693Z,10.10
2023-04-25T15:11:57.770Z,10.10
2023-04-25T15:14:25.697Z,9.90
2023-04-25T15:16:53.535Z,9.90
2023-04-25T15:19:21.353Z,10.20
2023-04-25T15:21:49.209Z,10.30
2023-04-25T15:24:18.960Z,10.70
2023-04-25T15:26:47.771Z,10.80
2023-04-25T15:29:16.394Z,10.60
2023-04-25T15:31:44.300Z,10.40
2023-04-25T15:34:12.484Z,10.30
2023-04-25T15:36:40.321Z,10.10
2023-04-25T15:39:08.218Z,10.20
2023-04-25T15:41:38.232Z,10.10
2023-04-25T15:44:08.070Z,9.80
2023-04-25T15:46:35.981Z,9.20
2023-04-25T15:49:03.940Z,8.80
2023-04-25T15:51:31.914Z,8.50
2023-04-25T15:56:39.441Z,8.10
2023-04-25T15:59:07.614Z,8.30
2023-04-25T16:01:35.579Z,8.30
2023-04-25T16:04:03.950Z,8.20
2023-04-25T16:06:32.005Z,8.20
2023-04-25T16:09:00.361Z,8.40
2023-04-25T16:11:30.203Z,8.70
2023-04-25T16:13:59.624Z,8.90
2023-04-25T16:16:27.635Z,9.60
2023-04-25T16:18:55.839Z,10.20
2023-04-25T16:21:23.961Z,10.90
2023-04-25T16:23:52.321Z,11.20
2023-04-25T16:26:20.580Z,11.60
2023-04-25T16:28:51.614Z,11.40
2023-04-25T16:31:21.186Z,12.10
2023-04-25T16:33:49.583Z,12.70
2023-04-25T16:36:18.011Z,12.70
2023-04-25T16:38:45.937Z,13.20
2023-04-25T16:41:14.089Z,13.50
2023-04-25T16:43:42.024Z,13.30
2023-04-25T16:46:10.142Z,12.90
2023-04-25T16:48:39.653Z,11.70
2023-04-25T16:51:07.720Z,11.00
2023-04-25T16:53:36.215Z,10.40
2023-04-25T16:56:04.629Z,10.20
2023-04-25T16:58:32.960Z,10.20
2023-04-25T17:01:01.402Z,10.30
2023-04-25T17:03:29.677Z,10.10
2023-04-25T17:06:01.364Z,10.20
2023-04-25T17:08:29.573Z,10.20
2023-04-25T17:10:57.642Z,10.30
2023-04-25T17:13:31.089Z,10.20
2023-04-25T17:15:59.686Z,9.80
2023-04-25T17:18:28.347Z,9.60
2023-04-25T17:20:58.199Z,9.60
2023-04-25T17:23:26.402Z,9.50
2023-04-25T17:25:54.439Z,9.80
2023-04-25T17:28:22.869Z,9.50
2023-04-25T17:30:51.076Z,9.20
2023-04-25T17:33:19.144Z,9.10
2023-04-25T17:35:47.669Z,8.70
2023-04-25T17:38:17.137Z,8.70
2023-04-25T17:40:45.227Z,8.70
2023-04-25T17:43:13.447Z,8.40
2023-04-25T17:45:41.707Z,8.70
2023-04-25T17:48:09.845Z,8.50
2023-04-25T17:50:38.083Z,8.40
2023-04-25T17:53:06.300Z,8.30
2023-04-25T17:55:35.816Z,8.20
2023-04-25T17:58:04.117Z,8.10
2023-04-25T18:00:33.550Z,8.00
2023-04-25T18:03:01.549Z,8.00
2023-04-25T18:05:31.164Z,8.00
2023-04-25T18:07:59.428Z,7.80
2023-04-25T18:10:27.378Z,7.90
2023-04-25T18:12:56.776Z,7.90
2023-04-25T18:15:24.975Z,7.80
2023-04-25T18:17:53.079Z,7.70
2023-04-25T18:20:22.229Z,7.70
2023-04-25T18:22:50.751Z,7.70
2023-04-25T18:25:19.051Z,7.40
2023-04-25T18:27:47.363Z,7.40
2023-04-25T18:30:16.922Z,7.10
2023-04-25T18:32:44.893Z,7.20
2023-04-25T18:35:12.826Z,7.10
2023-04-25T18:37:42.336Z,7.10
2023-04-25T18:40:13.843Z,7.10
2023-04-25T18:42:42.084Z,7.10
2023-04-25T18:45:11.689Z,7.30
2023-04-25T18:47:41.025Z,7.00
2023-04-25T18:50:09.818Z,7.00
2023-04-25T18:52:38.354Z,6.70
2023-04-25T18:55:07.398Z,6.90
2023-04-25T18:57:36.009Z,6.70
2023-04-25T19:00:07.017Z,6.70
2023-04-25T19:02:37.064Z,6.80
2023-04-25T19:05:07.465Z,6.70
2023-04-25T19:07:36.160Z,6.80
2023-04-25T19:10:04.848Z,6.70
2023-04-25T19:12:33.501Z,6.70
2023-04-25T19:15:01.732Z,6.70
2023-04-25T19:17:30.524Z,6.70
2023-04-25T19:19:58.607Z,6.60
2023-04-25T19:22:28.473Z,6.40
2023-04-25T19:25:09.125Z,6.40
2023-04-25T19:27:38.999Z,6.40
2023-04-25T19:30:11.488Z,6.30
2023-04-25T19:32:39.962Z,6.10
2023-04-25T19:35:11.643Z,6.20
2023-04-25T19:37:46.302Z,6.10
2023-04-25T19:40:16.010Z,6.10
2023-04-25T19:42:44.087Z,5.90
2023-04-25T19:45:13.006Z,5.90
2023-04-25T19:47:41.833Z,6.00
2023-04-25T19:50:11.198Z,5.80
2023-04-25T19:52:41.654Z,5.70
2023-04-25T19:55:11.260Z,5.80
2023-04-25T19:57:39.563Z,5.60
2023-04-25T20:00:10.743Z,5.80
2023-04-25T20:02:39.041Z,5.70
2023-04-25T20:05:08.322Z,5.70
2023-04-25T20:07:37.094Z,5.60
2023-04-25T20:10:08.139Z,5.60
2023-04-25T20:12:37.624Z,5.70
2023-04-25T20:15:06.699Z,5.50
2023-04-25T20:17:35.058Z,5.30
2023-04-25T20:20:04.131Z,5.60
2023-04-25T20:22:36.031Z,5.40
2023-04-25T20:25:08.323Z,5.40
2023-04-25T20:27:37.795Z,5.30
2023-04-25T20:30:07.985Z,5.30
2023-04-25T20:32:36.684Z,5.20
2023-04-25T20:35:07.357Z,5.40
2023-04-25T20:37:35.965Z,5.20
2023-04-25T20:40:08.606Z,5.30
2023-04-25T20:42:36.967Z,5.20
2023-04-25T20:45:07.529Z,5.10
2023-04-25T20:47:35.935Z,4.90
2023-04-25T20:50:05.905Z,5.00
2023-04-25T20:52:34.394Z,4.80
2023-04-25T20:55:02.288Z,4.70
2023-04-25T20:57:32.255Z,4.90
2023-04-25T21:00:00.101Z,4.80
2023-04-25T21:02:28.894Z,4.80
2023-04-25T21:04:56.864Z,4.70
2023-04-25T21:07:24.972Z,4.80
2023-04-25T21:09:53.087Z,4.70
2023-04-25T21:12:21.186Z,4.60
2023-04-25T21:14:50.611Z,4.60
2023-04-25T21:17:18.534Z,4.60
2023-04-25T21:19:46.487Z,4.40
2023-04-25T21:22:14.741Z,4.30
2023-04-25T21:24:42.570Z,4.20
2023-04-25T21:27:10.751Z,4.30
2023-04-25T21:29:38.916Z,4.20
2023-04-25T21:32:08.861Z,4.40
2023-04-25T21:34:36.763Z,4.10
2023-04-25T21:37:04.673Z,4.20
2023-04-25T21:39:33.006Z,4.00
2023-04-25T21:42:01.806Z,4.40
2023-04-25T21:44:30.399Z,4.10
2023-04-25T21:46:58.354Z,4.10
2023-04-25T21:49:29.714Z,4.00
2023-04-25T21:51:57.904Z,4.20
2023-04-25T21:54:26.104Z,3.90
2023-04-25T21:56:54.210Z,3.90
2023-04-25T21:59:24.810Z,3.90
2023-04-25T22:01:54.327Z,3.80
2023-04-25T22:04:22.727Z,3.90
2023-04-25T22:06:52.845Z,3.80
2023-04-25T22:09:20.772Z,4.10
2023-04-25T22:11:48.760Z,3.90
2023-04-25T22:14:16.741Z,4.00
2023-04-25T22:16:44.947Z,3.80
2023-04-25T22:19:12.974Z,4.10
2023-04-25T22:21:40.889Z,3.80
2023-04-25T22:24:10.497Z,3.80
2023-04-25T22:26:38.486Z,3.70
2023-04-25T22:29:06.829Z,3.80
2023-04-25T22:31:34.955Z,3.70
2023-04-25T22:34:03.395Z,3.70
2023-04-25T22:36:31.336Z,3.70
2023-04-25T22:38:59.213Z,3.90
2023-04-25T22:41:28.592Z,3.80
2023-04-25T22:43:56.826Z,3.90
2023-04-25T22:46:24.811Z,3.80
2023-04-25T22:48:53.382Z,3.90
2023-04-25T22:51:22.180Z,3.70
2023-04-25T22:53:50.162Z,3.70
2023-04-25T22:56:18.370Z,3.60
2023-04-25T22:58:49.533Z,3.50
2023-04-25T23:01:19.301Z,3.30
2023-04-25T23:03:48.596Z,3.50
2023-04-25T23:06:17.083Z,3.40
2023-04-25T23:08:45.341Z,3.30
2023-04-25T23:11:14.035Z,3.70
2023-04-25T23:13:41.872Z,3.50
2023-04-25T23:16:12.788Z,3.40
2023-04-25T23:18:41.277Z,3.30
2023-04-25T23:21:09.357Z,3.20
2023-04-25T23:23:37.908Z,3.10
2023-04-25T23:26:08.927Z,3.10
2023-04-25T23:28:39.920Z,3.20
2023-04-25T23:31:12.059Z,3.20
2023-04-25T23:33:40.386Z,3.20
2023-04-25T23:36:08.436Z,3.00
2023-04-25T23:38:36.242Z,3.20
2023-04-25T23:41:04.332Z,3.00
2023-04-25T23:43:32.432Z,3.10
2023-04-25T23:46:00.331Z,3.10
2023-04-25T23:48:29.617Z,2.90
2023-04-25T23:50:57.501Z,3.10
2023-04-25T23:53:25.588Z,2.70
2023-04-25T23:55:53.604Z,2.90
2023-04-25T23:58:21.498Z,2.80
